Terminal Aerodrome Forecast
Issued by NWS

Home | Current Version | Previous Version | Text Only | Print | Product List | Glossary On
Versions: 1 2 3 4 5 6 7 8 9 10 11 12 13 14 15 16 17 18 19 20 21
000
FTUS46 KLOX 232300 RRA
TAFLGB
TAF
KLGB 232350Z 2400/2424 31011KT P6SM BKN200
     FM240400 VRB03KT P6SM SCT200
     FM241000 VRB03KT 6SM BR BKN010 BKN200
     FM241600 18006KT P6SM SCT200
     FM242300 29010KT P6SM SCT200=

USA.gov is the U.S. government's official web portal to all federal, state and local government web resources and services.